Aviation Digital Data Service (ADDS)

Output produced by METARs form (1703 UTC 11 February 2016)
found at http://aviationweather.gov/adds/metars/
 
KRUT 111140Z 1112/1212 29006KT P6SM VCSH BKN080 
     FM111800 29009KT P6SM VCSH BKN045 
     FM120500 30007KT P6SM SCT120 
     FM120900 VRB03KT P6SM FEW250 AMD LTD TO CLD VIS AND WIND